LFBOLFBA

Guest
Details From LFBO - Toulouse Blagnac
To LFBA - Agen La Garenne
Flight Number -
Tags Generated
Created
Modified
Stats Distance 47 nm / 87 km
Max Altitude 0 ft / 0 m
Waypoints 2
Social Downloads 0
Likes 0
Share VATSIM

Download

Looking for another format? Having issues loading an existing format? Contact us
Advertisement - Login to hide

Notes

Generated

Route

LFBO LFBA

ID Type Via Altitude Latitude Longitude Leg Dist Tot Dist Heading (true) Name
O LFBO APT - 0 ft / 0 m 43.63736˚ 1.35762˚ - 0 nm - -
O LFBA APT - 0 ft / 0 m 44.17770˚ 0.58043˚ 46 nm 46 nm 314° / 314° -

Altitude Profile

Advertisement - Login to hide

LFBO

Details ICAO LFBO (TLS)
Name Toulouse Blagnac
Region France
Timezone Europe/Paris (UTC+2.0)
Stats Elevation 499 ft / 152 m (AMSL)
Location 43.629026° 1.363969°
Runways 2
Magnetic Variation 0.628° E

METAR

LFBO 250700Z AUTO 13013KT 9999 FEW009 SCT017 18/14 Q1015 NOSIG

Decode

TAF

TAF LFBO 250500Z 2506/2612 14010KT CAVOK PROB30 TEMPO 2506/2510 SCT013 PROB40 TEMPO 2510/2512 SCT035 PROB30 TEMPO 2600/2608 14015G25KT BECMG 2608/2610 14015G25KT PROB30 TEMPO 2610/2612 14018G30KT

Decode

Departure Runways

ID Width Length Bearing (true) Bearing (mag) Surface Threshold Offset Overrun Length
14L 148 ft / 45 m 9,923 ft / 3,025 m 143.00° 142.37° Asphalt 0 ft / 0 m 0 ft / 0 m
14R 148 ft / 45 m 11,484 ft / 3,500 m 142.99° 142.36° Asphalt 0 ft / 0 m 295 ft / 90 m
32L 148 ft / 45 m 11,484 ft / 3,500 m 323.01° 322.38° Asphalt 0 ft / 0 m 197 ft / 60 m
32R 148 ft / 45 m 9,923 ft / 3,025 m 323.02° 322.39° Asphalt 0 ft / 0 m 0 ft / 0 m

LFBA

Details ICAO LFBA (AGF)
Name Agen la Garenne
Region France
Timezone Europe/Paris (UTC+2.0)
Stats Elevation 204 ft / 62 m (AMSL)
Location 44.174025° 0.592961°
Runways 1
Magnetic Variation 0.396° E

METAR

LFBA 250700Z AUTO VRB03KT 8000 NSC 17/17 Q1015 NOSIG

Decode

TAF

Not found

Destination Runways

ID Width Length Bearing (true) Bearing (mag) Surface Threshold Offset Overrun Length
11 98 ft / 30 m 7,088 ft / 2,161 m 112.24° 111.84° Asphalt 541 ft / 165 m 0 ft / 0 m
29 98 ft / 30 m 7,088 ft / 2,161 m 292.26° 291.86° Asphalt 1,312 ft / 400 m 0 ft / 0 m

Approach Navaids

Runway Type Ident Frequency Range Bearing (true) Bearing (mag) Slope Elevation
29 Localiser AG 110.35 MHz 18 nm / 33 km 292.25° 291.86° - 213 ft / 65 m (AMSL)
29 Glidescope AG 110.35 MHz 10 nm / 19 km 292.25° 291.86° 3.30° 240 ft / 73 m (AMSL)
29 DME AG 110.35 MHz 18 nm / 33 km - - - 240 ft / 73 m (AMSL)

Popular Alternatives